createdAt,value
2023-05-03T00:00:42.029Z,2.47
2023-05-03T00:03:08.734Z,2.20
2023-05-03T00:05:35.700Z,2.03
2023-05-03T00:08:02.754Z,2.03
2023-05-03T00:10:29.516Z,1.73
2023-05-03T00:12:56.776Z,2.15
2023-05-03T00:15:23.450Z,1.80
2023-05-03T00:17:50.206Z,2.42
2023-05-03T00:20:19.297Z,2.13
2023-05-03T00:22:45.988Z,2.10
2023-05-03T00:25:12.564Z,2.00
2023-05-03T00:27:39.241Z,1.88
2023-05-03T00:30:06.483Z,2.15
2023-05-03T00:32:33.473Z,1.90
2023-05-03T00:35:00.051Z,2.20
2023-05-03T00:37:26.576Z,2.10
2023-05-03T00:39:53.695Z,2.40
2023-05-03T00:42:20.300Z,2.17
2023-05-03T00:44:46.976Z,2.28
2023-05-03T00:47:13.896Z,2.30
2023-05-03T00:49:41.651Z,2.08
2023-05-03T00:52:09.211Z,2.28
2023-05-03T00:54:36.495Z,2.25
2023-05-03T00:57:04.797Z,2.13
2023-05-03T00:59:32.653Z,2.25
2023-05-03T01:01:59.440Z,2.35
2023-05-03T01:04:26.834Z,2.45
2023-05-03T01:06:59.231Z,2.70
2023-05-03T01:09:48.388Z,2.20
2023-05-03T01:12:39.945Z,2.70
2023-05-03T01:15:31.736Z,2.38
2023-05-03T01:18:04.438Z,2.53
2023-05-03T01:20:34.727Z,2.50
2023-05-03T01:23:43.917Z,2.90
2023-05-03T01:26:23.431Z,2.42
2023-05-03T01:28:50.784Z,2.70
2023-05-03T01:31:44.657Z,2.42
2023-05-03T01:36:44.198Z,2.50
2023-05-03T01:39:21.956Z,2.08
2023-05-03T01:41:54.430Z,2.50
2023-05-03T01:44:23.148Z,2.58
2023-05-03T01:46:49.889Z,2.72
2023-05-03T01:49:16.538Z,2.70
2023-05-03T01:51:43.029Z,2.55
2023-05-03T01:54:09.955Z,2.38
2023-05-03T01:56:37.252Z,2.50
2023-05-03T01:59:04.363Z,2.78
2023-05-03T02:01:30.984Z,2.17
2023-05-03T02:03:57.602Z,2.75
2023-05-03T02:06:25.966Z,2.60
2023-05-03T02:08:53.393Z,2.70
2023-05-03T02:11:21.456Z,2.42
2023-05-03T02:13:51.281Z,2.13
2023-05-03T02:16:18.644Z,2.22
2023-05-03T02:18:45.452Z,2.70
2023-05-03T02:21:13.082Z,2.70
2023-05-03T02:23:39.674Z,2.70
2023-05-03T02:26:06.658Z,2.88
2023-05-03T02:28:34.071Z,2.70
2023-05-03T02:31:00.933Z,2.75
2023-05-03T02:33:27.546Z,2.30
2023-05-03T02:35:54.740Z,2.85
2023-05-03T02:38:21.290Z,2.97
2023-05-03T02:40:47.819Z,2.40
2023-05-03T02:43:14.281Z,2.70
2023-05-03T02:45:40.860Z,2.60
2023-05-03T02:48:07.463Z,2.67
2023-05-03T02:50:33.996Z,3.05
2023-05-03T02:53:00.594Z,2.72
2023-05-03T02:55:27.589Z,3.35
2023-05-03T02:57:54.126Z,2.95
2023-05-03T03:00:20.898Z,2.85
2023-05-03T03:02:47.455Z,2.75
2023-05-03T03:05:14.352Z,2.88
2023-05-03T03:07:41.118Z,3.00
2023-05-03T03:10:08.198Z,3.03
2023-05-03T03:12:36.351Z,3.00
2023-05-03T03:15:04.009Z,2.50
2023-05-03T03:17:32.022Z,2.47
2023-05-03T03:19:58.604Z,2.40
2023-05-03T03:22:28.183Z,3.00
2023-05-03T03:24:54.663Z,2.60
2023-05-03T03:27:23.192Z,2.42
2023-05-03T03:29:49.953Z,2.50
2023-05-03T03:32:16.504Z,2.45
2023-05-03T03:34:43.076Z,2.38
2023-05-03T03:37:09.656Z,2.97
2023-05-03T03:39:36.744Z,2.97
2023-05-03T03:42:03.529Z,2.50
2023-05-03T03:44:30.055Z,2.72
2023-05-03T03:46:56.593Z,2.95
2023-05-03T03:49:23.235Z,2.80
2023-05-03T03:51:49.789Z,2.60
2023-05-03T03:54:16.419Z,3.13
2023-05-03T03:56:43.034Z,2.65
2023-05-03T03:59:09.843Z,3.05
2023-05-03T04:01:36.431Z,3.10
2023-05-03T04:04:03.009Z,2.67
2023-05-03T04:06:30.090Z,2.95
2023-05-03T04:08:56.621Z,3.40
2023-05-03T04:11:23.579Z,2.90
2023-05-03T04:13:50.268Z,2.88
2023-05-03T04:16:17.165Z,2.85
2023-05-03T04:18:43.750Z,2.80
2023-05-03T04:21:10.248Z,3.03
2023-05-03T04:23:36.968Z,2.90
2023-05-03T04:26:05.088Z,3.08
2023-05-03T04:28:31.990Z,3.15
2023-05-03T04:30:59.359Z,3.03
2023-05-03T04:33:26.963Z,2.65
2023-05-03T04:35:53.557Z,3.17
2023-05-03T04:38:20.732Z,3.17
2023-05-03T04:40:47.362Z,3.22
2023-05-03T04:43:13.926Z,2.67
2023-05-03T04:45:41.744Z,2.75
2023-05-03T04:48:09.286Z,3.30
2023-05-03T04:50:35.926Z,2.72
2023-05-03T04:53:02.526Z,2.85
2023-05-03T04:55:29.054Z,2.97
2023-05-03T04:57:56.554Z,3.20
2023-05-03T05:00:23.695Z,3.05
2023-05-03T05:02:51.088Z,2.97
2023-05-03T05:05:19.550Z,2.75
2023-05-03T05:07:46.821Z,2.92
2023-05-03T05:10:14.674Z,3.58
2023-05-03T05:12:41.812Z,3.22
2023-05-03T05:15:09.197Z,3.28
2023-05-03T05:17:35.935Z,3.05
2023-05-03T05:20:02.747Z,3.08
2023-05-03T05:22:29.391Z,4.20
2023-05-03T05:24:55.970Z,3.65
2023-05-03T05:27:23.627Z,3.45
2023-05-03T05:29:50.320Z,3.53
2023-05-03T05:32:16.822Z,3.40
2023-05-03T05:34:45.832Z,3.85
2023-05-03T05:37:12.471Z,3.25
2023-05-03T05:39:39.097Z,3.55
2023-05-03T05:42:05.774Z,3.28
2023-05-03T05:44:32.622Z,3.15
2023-05-03T05:46:59.185Z,3.42
2023-05-03T05:49:25.692Z,3.42
2023-05-03T05:51:52.240Z,3.47
2023-05-03T05:54:18.754Z,3.55
2023-05-03T05:56:45.369Z,3.10
2023-05-03T05:59:12.124Z,3.80
2023-05-03T06:01:41.772Z,3.33
2023-05-03T06:04:08.608Z,3.92
2023-05-03T06:06:35.424Z,3.60
2023-05-03T06:09:07.045Z,3.17
2023-05-03T06:11:43.707Z,3.53
2023-05-03T06:14:10.390Z,3.65
2023-05-03T06:16:37.474Z,3.85
2023-05-03T06:19:05.020Z,3.90
2023-05-03T06:21:31.731Z,3.67
2023-05-03T06:23:58.385Z,3.45
2023-05-03T06:26:24.935Z,3.83
2023-05-03T06:28:52.417Z,3.58
2023-05-03T06:31:19.089Z,3.38
2023-05-03T06:33:46.160Z,3.15
2023-05-03T06:36:13.069Z,3.15
2023-05-03T06:38:40.876Z,3.22
2023-05-03T06:41:07.400Z,3.22
2023-05-03T06:43:33.968Z,3.55
2023-05-03T06:46:00.685Z,3.20
2023-05-03T06:48:27.912Z,2.90
2023-05-03T06:50:54.944Z,3.15
2023-05-03T06:53:21.516Z,3.50
2023-05-03T06:55:48.204Z,3.72
2023-05-03T06:58:14.753Z,3.20
2023-05-03T07:00:41.373Z,2.97
2023-05-03T07:03:08.112Z,3.05
2023-05-03T07:05:34.907Z,2.88
2023-05-03T07:08:01.495Z,2.63
2023-05-03T07:10:31.292Z,3.00
2023-05-03T07:12:58.221Z,3.50
2023-05-03T07:15:24.807Z,2.40
2023-05-03T07:17:51.497Z,3.00
2023-05-03T07:20:18.218Z,2.92
2023-05-03T07:22:45.168Z,2.75
2023-05-03T07:25:12.431Z,2.60
2023-05-03T07:27:39.038Z,2.78
2023-05-03T07:30:06.771Z,2.65
2023-05-03T07:32:33.507Z,2.67
2023-05-03T07:35:00.126Z,2.60
2023-05-03T07:37:27.824Z,2.28
2023-05-03T07:39:54.390Z,1.75
2023-05-03T07:42:21.117Z,2.53
2023-05-03T07:44:47.649Z,2.10
2023-05-03T07:47:14.495Z,2.35
2023-05-03T07:49:41.064Z,1.95
2023-05-03T07:52:07.562Z,2.38
2023-05-03T07:54:34.207Z,2.28
2023-05-03T07:57:00.981Z,2.00
2023-05-03T07:59:27.644Z,1.95
2023-05-03T08:01:54.268Z,2.10
2023-05-03T08:04:21.107Z,1.88
2023-05-03T08:06:48.170Z,2.22
2023-05-03T08:09:15.751Z,1.70
2023-05-03T08:11:44.109Z,1.65
2023-05-03T08:14:11.243Z,1.98
2023-05-03T08:16:37.959Z,2.08
2023-05-03T08:19:04.977Z,2.30
2023-05-03T08:21:33.438Z,3.35
2023-05-03T08:28:55.360Z,1.80
2023-05-03T08:31:21.941Z,1.98
2023-05-03T08:33:48.528Z,2.03
2023-05-03T08:36:15.266Z,1.90
2023-05-03T08:38:41.996Z,2.03
2023-05-03T08:41:17.841Z,2.22
2023-05-03T08:43:46.589Z,1.88
2023-05-03T08:46:13.765Z,1.45
2023-05-03T08:48:40.460Z,2.00
2023-05-03T08:51:10.022Z,2.00
2023-05-03T08:53:36.856Z,1.98
2023-05-03T08:56:12.440Z,1.77
2023-05-03T08:58:39.136Z,2.00
2023-05-03T09:01:07.382Z,2.28
2023-05-03T09:03:35.682Z,2.20
2023-05-03T09:06:03.495Z,2.03
2023-05-03T09:08:31.224Z,2.10
2023-05-03T09:10:57.916Z,2.45
2023-05-03T09:13:32.111Z,2.28
2023-05-03T09:15:58.977Z,2.40
2023-05-03T09:18:26.991Z,2.42
2023-05-03T09:20:53.564Z,2.13
2023-05-03T09:23:26.273Z,1.98
2023-05-03T09:25:53.019Z,2.08
2023-05-03T09:28:20.404Z,2.40
2023-05-03T09:30:48.350Z,2.40
2023-05-03T09:33:22.254Z,2.55
2023-05-03T09:36:08.184Z,2.63
2023-05-03T09:38:38.921Z,2.33
2023-05-03T09:41:08.370Z,2.13
2023-05-03T09:43:36.067Z,2.20
2023-05-03T09:46:11.049Z,2.20
2023-05-03T09:48:39.061Z,2.28
2023-05-03T09:51:06.356Z,2.13
2023-05-03T09:53:34.271Z,2.05
2023-05-03T09:56:12.509Z,1.83
2023-05-03T09:58:40.422Z,2.45
2023-05-03T10:01:08.807Z,2.40
2023-05-03T10:03:44.136Z,1.90
2023-05-03T10:06:45.329Z,2.50
2023-05-03T10:09:12.393Z,2.50
2023-05-03T10:11:39.404Z,2.70
2023-05-03T10:14:07.416Z,2.40
2023-05-03T10:16:39.044Z,1.90
2023-05-03T10:19:34.515Z,2.50
2023-05-03T10:22:09.724Z,2.40
2023-05-03T10:24:37.902Z,2.60
2023-05-03T10:27:08.540Z,2.80
2023-05-03T10:29:35.011Z,2.35
2023-05-03T10:32:03.366Z,2.40
2023-05-03T10:34:39.585Z,2.28
2023-05-03T10:37:11.018Z,1.95
2023-05-03T10:39:37.795Z,1.90
2023-05-03T10:42:08.006Z,2.20
2023-05-03T10:44:51.520Z,2.20
2023-05-03T10:47:21.857Z,2.10
2023-05-03T10:50:08.517Z,2.00
2023-05-03T10:52:38.402Z,2.08
2023-05-03T10:55:18.121Z,1.80
2023-05-03T10:57:46.834Z,2.10
2023-05-03T11:00:16.459Z,2.00
2023-05-03T11:03:02.721Z,2.08
2023-05-03T11:05:31.195Z,2.05
2023-05-03T11:08:14.491Z,2.40
2023-05-03T11:10:41.925Z,2.65
2023-05-03T11:13:08.495Z,2.45
2023-05-03T11:15:35.217Z,2.28
2023-05-03T11:18:02.544Z,2.20
2023-05-03T11:20:29.733Z,2.22
2023-05-03T11:22:56.582Z,2.45
2023-05-03T11:25:23.239Z,2.03
2023-05-03T11:27:49.811Z,1.92
2023-05-03T11:30:18.091Z,2.28
2023-05-03T11:32:44.737Z,1.98
2023-05-03T11:35:13.916Z,2.40
2023-05-03T11:37:40.628Z,2.30
2023-05-03T11:40:08.298Z,2.30
2023-05-03T11:42:34.956Z,2.47
2023-05-03T11:45:03.347Z,2.13
2023-05-03T11:47:30.745Z,2.28
2023-05-03T11:49:57.952Z,2.05
2023-05-03T11:52:27.493Z,2.33
2023-05-03T11:54:54.450Z,2.38
2023-05-03T11:57:21.687Z,2.30
2023-05-03T11:59:49.713Z,1.90
2023-05-03T12:02:16.813Z,2.03
2023-05-03T12:04:44.845Z,2.00
2023-05-03T12:07:14.927Z,2.40
2023-05-03T12:09:44.611Z,2.17
2023-05-03T12:12:24.579Z,1.90
2023-05-03T12:15:03.205Z,2.17
2023-05-03T12:17:56.389Z,2.30
2023-05-03T12:22:57.920Z,2.10
2023-05-03T12:25:28.071Z,2.17
2023-05-03T12:30:32.527Z,2.20
2023-05-03T12:33:04.131Z,1.88
2023-05-03T12:35:34.193Z,2.10
2023-05-03T12:38:03.449Z,2.03
2023-05-03T12:40:34.039Z,2.15
2023-05-03T12:43:01.892Z,2.22
2023-05-03T12:45:33.636Z,2.30
2023-05-03T12:48:00.975Z,2.03
2023-05-03T12:50:31.221Z,2.08
2023-05-03T12:53:01.938Z,1.92
2023-05-03T12:55:34.608Z,2.13
2023-05-03T13:00:35.986Z,1.90
2023-05-03T13:05:35.856Z,2.10
2023-05-03T13:08:09.337Z,2.00
2023-05-03T13:10:41.272Z,2.10
2023-05-03T13:13:09.198Z,2.15
2023-05-03T13:15:37.496Z,2.00
2023-05-03T13:20:36.202Z,2.13
2023-05-03T13:23:04.130Z,2.03
2023-05-03T13:25:30.910Z,2.53
2023-05-03T13:27:57.516Z,2.20
2023-05-03T13:30:24.191Z,2.60
2023-05-03T13:32:51.119Z,2.40
2023-05-03T13:35:18.266Z,2.20
2023-05-03T13:37:45.131Z,2.35
2023-05-03T13:40:12.278Z,2.28
2023-05-03T13:42:38.795Z,2.42
2023-05-03T13:45:05.664Z,2.50
2023-05-03T13:47:47.107Z,2.22
2023-05-03T13:50:19.319Z,2.67
2023-05-03T13:52:46.036Z,2.33
2023-05-03T13:55:12.553Z,2.58
2023-05-03T13:57:39.066Z,2.30
2023-05-03T14:00:07.205Z,2.55
2023-05-03T14:02:34.202Z,2.30
2023-05-03T14:05:00.870Z,2.13
2023-05-03T14:07:27.420Z,2.10
2023-05-03T14:09:54.000Z,2.10
2023-05-03T14:12:20.526Z,2.38
2023-05-03T14:14:47.103Z,2.30
2023-05-03T14:17:13.711Z,2.47
2023-05-03T14:19:40.331Z,2.25
2023-05-03T14:22:06.941Z,2.38
2023-05-03T14:24:33.445Z,2.10
2023-05-03T14:27:01.450Z,2.40
2023-05-03T14:29:28.222Z,2.42
2023-05-03T14:31:56.671Z,2.65
2023-05-03T14:34:23.556Z,2.33
2023-05-03T14:36:51.191Z,2.33
2023-05-03T14:39:17.704Z,2.03
2023-05-03T14:41:44.285Z,2.22
2023-05-03T14:44:10.881Z,2.03
2023-05-03T14:46:37.591Z,2.30
2023-05-03T14:49:04.270Z,2.42
2023-05-03T14:51:31.793Z,2.30
2023-05-03T14:53:58.504Z,2.20
2023-05-03T14:56:25.069Z,2.20
2023-05-03T14:58:51.828Z,2.55
2023-05-03T15:01:19.980Z,1.90
2023-05-03T15:03:46.749Z,2.30
2023-05-03T15:06:13.339Z,2.25
2023-05-03T15:08:40.009Z,2.10
2023-05-03T15:11:07.800Z,2.50
2023-05-03T15:13:34.713Z,2.40
2023-05-03T15:16:01.349Z,2.60
2023-05-03T15:18:27.943Z,2.20
2023-05-03T15:20:54.575Z,2.03
2023-05-03T15:23:21.177Z,2.53
2023-05-03T15:25:48.117Z,2.50
2023-05-03T15:28:14.703Z,2.95
2023-05-03T15:30:41.250Z,2.20
2023-05-03T15:33:10.669Z,2.40
2023-05-03T15:35:40.841Z,2.47
2023-05-03T15:38:08.292Z,2.33
2023-05-03T15:40:34.871Z,2.70
2023-05-03T15:43:01.795Z,1.98
2023-05-03T15:45:28.506Z,2.55
2023-05-03T15:47:58.426Z,2.50
2023-05-03T15:50:25.203Z,2.50
2023-05-03T15:52:51.734Z,2.55
2023-05-03T15:55:19.356Z,2.28
2023-05-03T15:57:46.161Z,2.80
2023-05-03T16:00:16.039Z,3.00
2023-05-03T16:02:42.852Z,2.50
2023-05-03T16:05:10.466Z,2.13
2023-05-03T16:07:37.133Z,2.65
2023-05-03T16:10:03.990Z,2.55
2023-05-03T16:12:30.770Z,2.33
2023-05-03T16:14:57.504Z,1.88
2023-05-03T16:17:24.097Z,2.47
2023-05-03T16:19:50.725Z,2.88
2023-05-03T16:22:17.520Z,2.35
2023-05-03T16:24:44.086Z,2.92
2023-05-03T16:27:10.760Z,2.38
2023-05-03T16:29:37.656Z,2.63
2023-05-03T16:32:06.236Z,2.55
2023-05-03T16:34:32.910Z,2.97
2023-05-03T16:37:00.473Z,2.53
2023-05-03T16:39:27.001Z,2.83
2023-05-03T16:41:53.558Z,2.70
2023-05-03T16:44:20.169Z,2.38
2023-05-03T16:46:46.929Z,2.83
2023-05-03T16:49:13.608Z,3.00
2023-05-03T16:51:41.185Z,3.28
2023-05-03T16:54:07.815Z,2.70
2023-05-03T16:56:34.733Z,2.75
2023-05-03T16:59:02.851Z,3.25
2023-05-03T17:01:29.414Z,2.53
2023-05-03T17:03:55.961Z,2.95
2023-05-03T17:06:22.636Z,2.92
2023-05-03T17:08:49.183Z,2.90
2023-05-03T17:11:16.156Z,3.03
2023-05-03T17:13:42.779Z,2.85
2023-05-03T17:16:11.338Z,2.80
2023-05-03T17:18:39.049Z,3.03
2023-05-03T17:21:06.827Z,3.10
2023-05-03T17:23:38.107Z,2.70
2023-05-03T17:26:09.207Z,2.50
2023-05-03T17:28:36.592Z,2.85
2023-05-03T17:31:03.854Z,2.33
2023-05-03T17:33:30.485Z,2.70
2023-05-03T17:35:57.171Z,2.65
2023-05-03T17:38:23.782Z,2.75
2023-05-03T17:40:50.757Z,2.80
2023-05-03T17:43:17.791Z,2.65
2023-05-03T17:45:47.442Z,2.67
2023-05-03T17:48:14.777Z,2.72
2023-05-03T17:50:46.148Z,2.53
2023-05-03T17:53:12.972Z,2.67
2023-05-03T17:55:39.611Z,2.60
2023-05-03T17:58:06.470Z,2.67
2023-05-03T18:00:33.904Z,3.10
2023-05-03T18:03:00.848Z,2.75
2023-05-03T18:05:27.606Z,2.83
2023-05-03T18:07:55.381Z,3.08
2023-05-03T18:10:22.278Z,2.75
2023-05-03T18:12:49.055Z,3.13
2023-05-03T18:15:16.120Z,2.92
2023-05-03T18:17:43.390Z,3.10
2023-05-03T18:20:10.519Z,3.40
2023-05-03T18:22:37.636Z,2.92
2023-05-03T18:25:07.449Z,3.13
2023-05-03T18:27:37.367Z,2.83
2023-05-03T18:30:06.707Z,3.17
2023-05-03T18:32:33.602Z,3.30
2023-05-03T18:35:00.761Z,3.00
2023-05-03T18:37:27.850Z,3.20
2023-05-03T18:39:54.450Z,3.08
2023-05-03T18:42:22.386Z,3.05
2023-05-03T18:44:49.128Z,2.92
2023-05-03T18:47:20.498Z,3.30
2023-05-03T18:49:52.826Z,2.90
2023-05-03T18:52:23.155Z,2.83
2023-05-03T18:54:54.409Z,2.42
2023-05-03T18:57:20.944Z,2.90
2023-05-03T18:59:59.481Z,2.63
2023-05-03T19:02:30.579Z,2.22
2023-05-03T19:04:58.305Z,2.72
2023-05-03T19:07:25.370Z,2.22
2023-05-03T19:09:55.657Z,2.35
2023-05-03T19:12:22.349Z,2.70
2023-05-03T19:14:49.176Z,2.58
2023-05-03T19:17:15.741Z,2.50
2023-05-03T19:19:42.400Z,2.42
2023-05-03T19:22:08.981Z,2.33
2023-05-03T19:24:35.590Z,2.70
2023-05-03T19:27:03.755Z,2.25
2023-05-03T19:29:31.135Z,2.50
2023-05-03T19:31:57.678Z,2.42
2023-05-03T19:34:24.219Z,2.58
2023-05-03T19:36:50.890Z,2.60
2023-05-03T19:39:17.404Z,2.05
2023-05-03T19:41:43.979Z,2.42
2023-05-03T19:44:10.544Z,2.50
2023-05-03T19:46:37.264Z,2.78
2023-05-03T19:49:04.055Z,3.10
2023-05-03T19:51:31.364Z,2.90
2023-05-03T19:53:57.996Z,2.92
2023-05-03T19:56:25.077Z,3.58
2023-05-03T19:58:51.779Z,2.88
2023-05-03T20:01:18.533Z,3.42
2023-05-03T20:03:45.558Z,3.15
2023-05-03T20:06:12.111Z,3.35
2023-05-03T20:08:39.044Z,4.05
2023-05-03T20:11:05.658Z,3.42
2023-05-03T20:13:32.516Z,3.42
2023-05-03T20:15:59.141Z,3.80
2023-05-03T20:18:25.794Z,3.45
2023-05-03T20:20:52.470Z,3.80
2023-05-03T20:23:19.115Z,3.03
2023-05-03T20:25:45.667Z,3.95
2023-05-03T20:28:12.974Z,3.05
2023-05-03T20:30:39.567Z,3.20
2023-05-03T20:33:06.236Z,3.80
2023-05-03T20:35:32.808Z,3.67
2023-05-03T20:37:59.447Z,3.88
2023-05-03T20:40:26.142Z,3.78
2023-05-03T20:42:52.673Z,3.60
2023-05-03T20:45:19.289Z,3.17
2023-05-03T20:47:46.009Z,3.47
2023-05-03T20:50:12.569Z,3.72
2023-05-03T20:52:39.139Z,2.83
2023-05-03T20:55:06.118Z,3.50
2023-05-03T20:57:33.024Z,3.08
2023-05-03T21:00:02.366Z,3.45
2023-05-03T21:02:29.243Z,3.85
2023-05-03T21:04:55.803Z,3.92
2023-05-03T21:07:22.541Z,3.80
2023-05-03T21:09:49.029Z,3.45
2023-05-03T21:12:15.725Z,3.20
2023-05-03T21:14:42.281Z,3.67
2023-05-03T21:17:09.856Z,3.53
2023-05-03T21:19:36.335Z,3.42
2023-05-03T21:22:02.834Z,3.40
2023-05-03T21:24:31.007Z,3.15
2023-05-03T21:26:58.794Z,4.35
2023-05-03T21:29:25.276Z,3.55
2023-05-03T21:31:52.035Z,3.35
2023-05-03T21:34:18.710Z,3.63
2023-05-03T21:36:45.225Z,3.50
2023-05-03T21:39:12.121Z,3.33
2023-05-03T21:41:39.213Z,3.45
2023-05-03T21:44:05.734Z,3.00
2023-05-03T21:46:32.351Z,3.15
2023-05-03T21:48:58.982Z,3.03
2023-05-03T21:51:25.807Z,2.97
2023-05-03T21:53:52.377Z,3.13
2023-05-03T21:56:18.892Z,3.10
2023-05-03T21:58:45.469Z,3.80
2023-05-03T22:01:12.388Z,3.30
2023-05-03T22:03:40.024Z,3.40
2023-05-03T22:06:08.930Z,3.50
2023-05-03T22:08:35.478Z,3.25
2023-05-03T22:11:06.905Z,3.60
2023-05-03T22:13:34.571Z,3.38
2023-05-03T22:16:08.663Z,3.60
2023-05-03T22:18:35.537Z,3.40
2023-05-03T22:21:03.152Z,3.15
2023-05-03T22:23:30.269Z,3.90
2023-05-03T22:25:57.352Z,3.63
2023-05-03T22:28:23.930Z,3.42
2023-05-03T22:30:50.458Z,3.47
2023-05-03T22:33:16.968Z,3.10
2023-05-03T22:35:43.599Z,3.22
2023-05-03T22:38:10.110Z,3.35
2023-05-03T22:40:36.638Z,2.80
2023-05-03T22:43:03.165Z,3.30
2023-05-03T22:45:30.530Z,3.20
2023-05-03T22:47:57.150Z,2.92
2023-05-03T22:50:23.716Z,3.13
2023-05-03T22:52:50.541Z,2.65
2023-05-03T22:55:17.157Z,3.20
2023-05-03T22:57:43.668Z,3.33
2023-05-03T23:00:11.133Z,2.92
2023-05-03T23:02:37.864Z,3.30
2023-05-03T23:05:04.998Z,3.40
2023-05-03T23:07:31.585Z,3.22
2023-05-03T23:10:03.210Z,3.10
2023-05-03T23:12:30.176Z,2.95
2023-05-03T23:14:56.902Z,3.22
2023-05-03T23:17:23.456Z,3.10
2023-05-03T23:19:50.070Z,3.40
2023-05-03T23:22:16.791Z,3.20
2023-05-03T23:24:43.461Z,2.90
2023-05-03T23:27:12.421Z,2.95
2023-05-03T23:29:39.472Z,3.00
2023-05-03T23:32:06.545Z,3.28
2023-05-03T23:34:33.669Z,3.10
2023-05-03T23:37:00.503Z,2.50
2023-05-03T23:39:27.460Z,3.05
2023-05-03T23:41:53.956Z,3.13
2023-05-03T23:44:21.025Z,2.80
2023-05-03T23:46:47.566Z,3.30
2023-05-03T23:49:14.078Z,2.88
2023-05-03T23:51:40.559Z,3.20
2023-05-03T23:54:07.159Z,2.90
2023-05-03T23:56:33.717Z,2.80
2023-05-03T23:59:01.459Z,2.50
